createdAt,value
2023-04-17T00:01:07.988Z,8.40
2023-04-17T00:03:36.385Z,8.40
2023-04-17T00:06:05.305Z,8.40
2023-04-17T00:08:33.911Z,8.40
2023-04-17T00:11:07.730Z,8.40
2023-04-17T00:13:38.052Z,8.40
2023-04-17T00:16:06.980Z,8.40
2023-04-17T00:18:35.448Z,8.40
2023-04-17T00:21:03.698Z,8.40
2023-04-17T00:23:31.893Z,8.40
2023-04-17T00:26:00.163Z,8.40
2023-04-17T00:28:28.453Z,8.40
2023-04-17T00:30:58.932Z,8.40
2023-04-17T00:33:27.134Z,8.40
2023-04-17T00:35:55.487Z,8.40
2023-04-17T00:38:23.740Z,8.40
2023-04-17T00:40:52.598Z,8.40
2023-04-17T00:43:20.869Z,8.40
2023-04-17T00:45:49.492Z,8.40
2023-04-17T00:48:21.025Z,8.40
2023-04-17T00:50:49.449Z,8.40
2023-04-17T00:53:18.378Z,8.40
2023-04-17T00:55:49.474Z,8.40
2023-04-17T00:58:17.813Z,8.40
2023-04-17T01:00:46.217Z,8.40
2023-04-17T01:03:17.135Z,8.40
2023-04-17T01:05:51.194Z,8.40
2023-04-17T01:08:20.117Z,8.40
2023-04-17T01:10:49.006Z,8.40
2023-04-17T01:13:17.297Z,8.40
2023-04-17T01:15:46.925Z,8.40
2023-04-17T01:18:16.424Z,8.40
2023-04-17T01:20:46.101Z,8.40
2023-04-17T01:23:14.590Z,8.40
2023-04-17T01:25:44.348Z,8.40
2023-04-17T01:28:12.786Z,8.40
2023-04-17T01:30:41.201Z,8.40
2023-04-17T01:33:11.066Z,8.40
2023-04-17T01:35:39.679Z,8.40
2023-04-17T01:38:07.951Z,8.40
2023-04-17T01:40:36.446Z,8.40
2023-04-17T01:43:06.555Z,8.40
2023-04-17T01:45:34.924Z,8.40
2023-04-17T01:48:03.239Z,8.40
2023-04-17T01:50:31.547Z,8.40
2023-04-17T01:53:00.275Z,8.40
2023-04-17T01:55:28.559Z,8.30
2023-04-17T01:57:56.823Z,8.40
2023-04-17T02:00:27.127Z,8.40
2023-04-17T02:02:55.949Z,8.30
2023-04-17T02:05:24.815Z,8.30
2023-04-17T02:07:53.122Z,8.40
2023-04-17T02:10:21.469Z,8.30
2023-04-17T02:12:49.762Z,8.30
2023-04-17T02:15:18.167Z,8.30
2023-04-17T02:17:47.736Z,8.30
2023-04-17T02:20:16.097Z,8.30
2023-04-17T02:22:44.447Z,8.30
2023-04-17T02:25:12.747Z,8.20
2023-04-17T02:27:41.092Z,8.30
2023-04-17T02:30:11.597Z,8.20
2023-04-17T02:32:41.014Z,8.20
2023-04-17T02:35:11.204Z,8.30
2023-04-17T02:37:40.071Z,8.20
2023-04-17T02:40:10.248Z,8.20
2023-04-17T02:42:39.246Z,8.20
2023-04-17T02:45:08.935Z,8.20
2023-04-17T02:47:37.669Z,8.20
2023-04-17T02:50:07.007Z,8.20
2023-04-17T02:52:43.097Z,8.20
2023-04-17T02:55:11.506Z,8.10
2023-04-17T02:57:41.559Z,8.10
2023-04-17T03:00:14.904Z,8.10
2023-04-17T03:02:43.744Z,8.00
2023-04-17T03:05:14.931Z,8.00
2023-04-17T03:07:44.552Z,8.00
2023-04-17T03:10:13.412Z,7.90
2023-04-17T03:12:41.775Z,7.90
2023-04-17T03:15:10.812Z,7.90
2023-04-17T03:17:40.985Z,7.90
2023-04-17T03:20:10.181Z,7.90
2023-04-17T03:22:38.535Z,7.80
2023-04-17T03:25:10.863Z,7.80
2023-04-17T03:27:47.175Z,7.80
2023-04-17T03:30:16.888Z,7.80
2023-04-17T03:32:49.416Z,7.80
2023-04-17T03:35:17.873Z,7.80
2023-04-17T03:37:46.664Z,7.80
2023-04-17T03:40:16.875Z,7.80
2023-04-17T03:42:47.844Z,7.80
2023-04-17T03:45:16.816Z,7.80
2023-04-17T03:47:47.602Z,7.80
2023-04-17T03:50:16.791Z,7.80
2023-04-17T03:52:51.524Z,7.80
2023-04-17T03:55:21.610Z,7.80
2023-04-17T03:57:51.630Z,7.70
2023-04-17T04:00:22.027Z,7.70
2023-04-17T04:02:54.530Z,7.70
2023-04-17T04:05:28.139Z,7.60
2023-04-17T04:07:57.704Z,7.60
2023-04-17T04:10:34.190Z,7.60
2023-04-17T04:13:02.601Z,7.60
2023-04-17T04:15:30.932Z,7.70
2023-04-17T04:18:03.043Z,7.70
2023-04-17T04:20:32.858Z,7.70
2023-04-17T04:23:13.140Z,7.70
2023-04-17T04:25:43.570Z,7.60
2023-04-17T04:28:23.345Z,7.60
2023-04-17T04:30:53.551Z,7.50
2023-04-17T04:33:23.904Z,7.50
2023-04-17T04:35:55.978Z,7.40
2023-04-17T04:38:29.929Z,7.40
2023-04-17T04:41:06.235Z,7.30
2023-04-17T04:43:35.736Z,7.30
2023-04-17T04:46:05.232Z,7.20
2023-04-17T04:48:39.399Z,7.20
2023-04-17T04:51:09.851Z,7.10
2023-04-17T04:53:39.707Z,7.10
2023-04-17T04:56:09.514Z,7.10
2023-04-17T04:58:38.589Z,7.10
2023-04-17T05:01:07.526Z,7.00
2023-04-17T05:03:45.164Z,7.00
2023-04-17T05:06:17.674Z,7.00
2023-04-17T05:08:50.263Z,7.00
2023-04-17T05:11:19.995Z,6.90
2023-04-17T05:13:50.514Z,7.00
2023-04-17T05:16:25.544Z,7.00
2023-04-17T05:18:54.309Z,7.10
2023-04-17T05:21:37.659Z,7.20
2023-04-17T05:24:06.134Z,7.30
2023-04-17T05:26:35.736Z,7.30
2023-04-17T05:29:04.966Z,7.40
2023-04-17T05:31:35.409Z,7.40
2023-04-17T05:34:08.997Z,7.50
2023-04-17T05:36:37.662Z,7.60
2023-04-17T05:39:06.853Z,7.70
2023-04-17T05:41:36.533Z,7.70
2023-04-17T05:44:05.011Z,7.80
2023-04-17T05:46:33.593Z,7.80
2023-04-17T05:49:01.965Z,7.90
2023-04-17T05:51:30.654Z,7.90
2023-04-17T05:53:59.001Z,8.00
2023-04-17T05:56:27.483Z,8.00
2023-04-17T05:58:59.126Z,8.10
2023-04-17T06:01:30.014Z,8.20
2023-04-17T06:03:58.582Z,8.20
2023-04-17T06:06:29.196Z,8.20
2023-04-17T06:08:59.491Z,8.30
2023-04-17T06:11:28.011Z,8.40
2023-04-17T06:13:58.242Z,8.40
2023-04-17T06:16:27.953Z,8.40
2023-04-17T06:18:56.405Z,8.50
2023-04-17T06:21:25.284Z,8.50
2023-04-17T06:23:53.712Z,8.50
2023-04-17T06:26:22.279Z,8.60
2023-04-17T06:28:51.603Z,8.60
2023-04-17T06:31:21.422Z,8.70
2023-04-17T06:33:50.834Z,8.70
2023-04-17T06:36:22.430Z,8.80
2023-04-17T06:38:54.455Z,8.90
2023-04-17T06:41:24.058Z,8.90
2023-04-17T06:43:52.472Z,9.00
2023-04-17T06:46:23.106Z,9.00
2023-04-17T06:48:52.267Z,9.10
2023-04-17T06:51:21.927Z,9.10
2023-04-17T06:53:50.487Z,9.10
2023-04-17T06:56:19.458Z,9.10
2023-04-17T06:58:48.264Z,9.20
2023-04-17T07:01:16.666Z,9.20
2023-04-17T07:03:49.966Z,9.20
2023-04-17T07:06:20.870Z,9.20
2023-04-17T07:08:49.288Z,9.30
2023-04-17T07:11:18.985Z,9.30
2023-04-17T07:13:47.756Z,9.30
2023-04-17T07:16:16.386Z,9.40
2023-04-17T07:18:44.793Z,9.40
2023-04-17T07:21:14.515Z,9.40
2023-04-17T07:23:42.893Z,9.40
2023-04-17T07:26:12.632Z,9.40
2023-04-17T07:28:41.238Z,9.50
2023-04-17T07:31:09.674Z,9.50
2023-04-17T07:33:40.468Z,9.60
2023-04-17T07:36:12.041Z,9.60
2023-04-17T07:38:42.332Z,9.70
2023-04-17T07:41:11.667Z,9.80
2023-04-17T07:43:40.116Z,9.90
2023-04-17T07:46:08.478Z,9.90
2023-04-17T07:48:36.987Z,9.90
2023-04-17T07:51:05.955Z,10.00
2023-04-17T07:53:35.955Z,10.10
2023-04-17T07:56:06.321Z,10.20
2023-04-17T07:58:35.693Z,10.40
2023-04-17T08:01:05.464Z,10.50
2023-04-17T08:03:34.414Z,10.60
2023-04-17T08:06:02.848Z,10.60
2023-04-17T08:08:31.338Z,10.70
2023-04-17T08:10:59.602Z,10.70
2023-04-17T08:13:31.236Z,10.70
2023-04-17T08:16:00.039Z,10.60
2023-04-17T08:18:28.412Z,10.60
2023-04-17T08:20:56.787Z,10.70
2023-04-17T08:23:25.888Z,10.80
2023-04-17T08:25:54.304Z,10.90
2023-04-17T08:28:22.619Z,10.90
2023-04-17T08:30:52.770Z,11.00
2023-04-17T08:33:21.345Z,11.00
2023-04-17T08:35:50.000Z,11.10
2023-04-17T08:38:18.285Z,11.20
2023-04-17T08:40:51.967Z,11.20
2023-04-17T08:43:22.080Z,11.20
2023-04-17T08:45:55.278Z,11.30
2023-04-17T08:48:24.830Z,11.40
2023-04-17T08:50:54.433Z,11.40
2023-04-17T08:53:34.648Z,11.50
2023-04-17T08:56:08.927Z,11.60
2023-04-17T08:58:37.919Z,11.50
2023-04-17T09:01:11.775Z,11.40
2023-04-17T09:03:43.373Z,11.40
2023-04-17T09:06:12.702Z,11.20
2023-04-17T09:08:55.474Z,11.30
2023-04-17T09:11:24.075Z,11.30
2023-04-17T09:13:52.427Z,11.30
2023-04-17T09:16:24.499Z,11.30
2023-04-17T09:19:05.481Z,11.30
2023-04-17T09:21:33.879Z,11.30
2023-04-17T09:24:02.315Z,11.40
2023-04-17T09:26:33.262Z,11.50
2023-04-17T09:29:04.767Z,11.70
2023-04-17T09:31:36.193Z,11.80
2023-04-17T09:34:07.425Z,12.20
2023-04-17T09:36:38.281Z,12.70
2023-04-17T09:39:17.248Z,12.90
2023-04-17T09:41:45.749Z,13.00
2023-04-17T09:44:26.880Z,13.00
2023-04-17T09:46:57.585Z,12.90
2023-04-17T09:49:34.840Z,12.80
2023-04-17T09:52:04.421Z,12.50
2023-04-17T09:54:37.900Z,12.30
2023-04-17T09:57:08.940Z,12.10
2023-04-17T09:59:40.602Z,12.00
2023-04-17T10:02:11.574Z,11.80
2023-04-17T10:04:42.125Z,11.70
2023-04-17T10:07:11.044Z,11.80
2023-04-17T10:09:41.480Z,11.90
2023-04-17T10:12:14.473Z,12.10
2023-04-17T10:14:48.323Z,12.40
2023-04-17T10:17:31.744Z,12.60
2023-04-17T10:23:28.830Z,12.90
2023-04-17T10:26:27.129Z,12.90
2023-04-17T10:28:57.659Z,13.00
2023-04-17T10:32:01.354Z,12.90
2023-04-17T10:34:44.029Z,12.70
2023-04-17T10:37:15.515Z,12.70
2023-04-17T10:39:52.577Z,12.90
2023-04-17T10:42:21.782Z,13.20
2023-04-17T10:44:51.049Z,13.40
2023-04-17T10:47:22.392Z,13.70
2023-04-17T10:49:55.017Z,13.80
2023-04-17T10:52:40.372Z,13.80
2023-04-17T10:55:11.066Z,13.70
2023-04-17T10:57:57.296Z,13.80
2023-04-17T11:00:34.084Z,14.30
2023-04-17T11:03:04.135Z,14.80
2023-04-17T11:05:35.541Z,15.50
2023-04-17T11:08:04.208Z,16.00
2023-04-17T11:10:37.163Z,16.30
2023-04-17T11:13:05.587Z,16.20
2023-04-17T11:15:35.562Z,16.00
2023-04-17T11:18:04.997Z,15.80
2023-04-17T11:20:37.316Z,15.60
2023-04-17T11:23:21.346Z,15.30
2023-04-17T11:25:49.693Z,15.10
2023-04-17T11:28:17.925Z,14.70
2023-04-17T11:30:46.351Z,14.50
2023-04-17T11:33:15.918Z,14.40
2023-04-17T11:35:45.735Z,14.20
2023-04-17T11:38:17.761Z,14.20
2023-04-17T11:40:48.726Z,14.10
2023-04-17T11:43:17.608Z,14.00
2023-04-17T11:45:47.831Z,14.10
2023-04-17T11:48:19.530Z,14.10
2023-04-17T11:50:49.439Z,14.20
2023-04-17T11:53:18.757Z,14.40
2023-04-17T11:55:47.670Z,14.50
2023-04-17T11:58:15.922Z,14.60
2023-04-17T12:00:44.340Z,14.60
2023-04-17T12:03:35.676Z,14.70
2023-04-17T12:06:06.669Z,14.60
2023-04-17T12:08:44.791Z,14.40
2023-04-17T12:11:18.058Z,14.40
2023-04-17T12:13:46.386Z,14.40
2023-04-17T12:16:14.633Z,14.30
2023-04-17T12:18:42.865Z,14.20
2023-04-17T12:21:12.633Z,14.00
2023-04-17T12:23:41.660Z,13.70
2023-04-17T12:26:10.426Z,13.40
2023-04-17T12:28:38.845Z,13.20
2023-04-17T12:31:07.395Z,13.20
2023-04-17T12:33:36.875Z,13.10
2023-04-17T12:36:06.411Z,13.10
2023-04-17T12:38:36.024Z,13.10
2023-04-17T12:41:04.490Z,13.20
2023-04-17T12:43:33.441Z,13.30
2023-04-17T12:46:02.178Z,13.30
2023-04-17T12:48:32.704Z,13.30
2023-04-17T12:51:03.081Z,13.40
2023-04-17T12:53:31.305Z,13.40
2023-04-17T12:56:01.088Z,13.30
2023-04-17T12:58:29.495Z,13.30
2023-04-17T13:00:57.914Z,13.30
2023-04-17T13:03:26.447Z,13.20
2023-04-17T13:05:55.048Z,13.10
2023-04-17T13:08:23.254Z,13.00
2023-04-17T13:10:51.590Z,13.00
2023-04-17T13:13:21.080Z,12.80
2023-04-17T13:15:49.672Z,12.70
2023-04-17T13:18:18.063Z,12.60
2023-04-17T13:20:46.431Z,12.50
2023-04-17T13:23:14.780Z,12.40
2023-04-17T13:25:43.101Z,12.30
2023-04-17T13:28:11.632Z,12.30
2023-04-17T13:30:41.353Z,12.20
2023-04-17T13:33:09.684Z,12.30
2023-04-17T13:35:38.070Z,12.30
2023-04-17T13:38:06.351Z,12.30
2023-04-17T13:40:34.765Z,12.40
2023-04-17T13:43:03.009Z,12.50
2023-04-17T13:45:31.330Z,12.60
2023-04-17T13:48:00.942Z,12.70
2023-04-17T13:50:29.467Z,12.90
2023-04-17T13:52:57.648Z,13.00
2023-04-17T13:55:26.021Z,13.20
2023-04-17T13:57:54.237Z,13.40
2023-04-17T14:00:23.107Z,13.60
2023-04-17T14:02:51.443Z,13.80
2023-04-17T14:05:21.299Z,13.90
2023-04-17T14:07:49.636Z,14.00
2023-04-17T14:10:18.166Z,14.00
2023-04-17T14:12:46.397Z,14.60
2023-04-17T14:15:14.745Z,15.60
2023-04-17T14:17:43.346Z,16.60
2023-04-17T14:20:13.002Z,17.40
2023-04-17T14:22:42.513Z,17.40
2023-04-17T14:25:11.271Z,17.10
2023-04-17T14:27:39.869Z,16.50
2023-04-17T14:30:09.687Z,15.90
2023-04-17T14:32:38.378Z,15.50
2023-04-17T14:35:07.595Z,15.20
2023-04-17T14:37:35.825Z,14.80
2023-04-17T14:40:08.200Z,14.70
2023-04-17T14:42:47.347Z,14.60
2023-04-17T14:45:22.181Z,14.50
2023-04-17T14:47:50.657Z,14.50
2023-04-17T14:50:19.160Z,14.40
2023-04-17T14:52:48.176Z,14.30
2023-04-17T14:55:18.409Z,14.40
2023-04-17T14:57:46.808Z,14.40
2023-04-17T15:00:16.980Z,14.30
2023-04-17T15:02:45.958Z,14.20
2023-04-17T15:05:17.607Z,14.10
2023-04-17T15:07:46.887Z,14.00
2023-04-17T15:10:16.912Z,13.90
2023-04-17T15:12:47.676Z,13.80
2023-04-17T15:15:16.834Z,13.80
2023-04-17T15:17:45.554Z,13.80
2023-04-17T15:20:13.805Z,13.80
2023-04-17T15:22:42.285Z,13.90
2023-04-17T15:25:10.889Z,14.00
2023-04-17T15:27:39.386Z,14.10
2023-04-17T15:30:10.822Z,14.20
2023-04-17T15:32:39.222Z,14.30
2023-04-17T15:35:08.549Z,14.30
2023-04-17T15:37:38.798Z,14.50
2023-04-17T15:40:08.974Z,14.50
2023-04-17T15:42:38.352Z,14.50
2023-04-17T15:45:09.968Z,14.30
2023-04-17T15:47:38.895Z,14.10
2023-04-17T15:50:08.653Z,13.90
2023-04-17T15:52:36.884Z,13.70
2023-04-17T15:55:05.697Z,13.70
2023-04-17T15:57:34.103Z,13.50
2023-04-17T16:00:19.608Z,13.50
2023-04-17T16:02:48.077Z,13.50
2023-04-17T16:05:17.210Z,13.40
2023-04-17T16:07:45.882Z,13.50
2023-04-17T16:10:14.737Z,13.50
2023-04-17T16:12:44.140Z,13.50
2023-04-17T16:15:13.292Z,13.50
2023-04-17T16:17:43.184Z,13.50
2023-04-17T16:20:12.284Z,13.50
2023-04-17T16:22:40.982Z,13.40
2023-04-17T16:25:11.901Z,13.30
2023-04-17T16:27:41.271Z,13.20
2023-04-17T16:30:11.045Z,13.20
2023-04-17T16:32:39.392Z,13.10
2023-04-17T16:35:10.037Z,13.10
2023-04-17T16:37:38.422Z,13.10
2023-04-17T16:40:08.121Z,13.10
2023-04-17T16:42:36.423Z,13.10
2023-04-17T16:45:05.346Z,13.10
2023-04-17T16:47:33.706Z,13.10
2023-04-17T16:50:02.446Z,13.00
2023-04-17T16:52:32.044Z,12.90
2023-04-17T16:55:00.828Z,12.80
2023-04-17T16:57:30.970Z,12.70
2023-04-17T16:59:59.313Z,12.70
2023-04-17T17:02:27.678Z,12.60
2023-04-17T17:04:56.085Z,12.50
2023-04-17T17:07:24.271Z,12.40
2023-04-17T17:09:54.119Z,12.30
2023-04-17T17:12:22.627Z,12.30
2023-04-17T17:14:51.073Z,12.30
2023-04-17T17:17:19.344Z,12.30
2023-04-17T17:19:47.718Z,12.20
2023-04-17T17:22:15.949Z,12.20
2023-04-17T17:24:44.258Z,12.20
2023-04-17T17:27:14.699Z,12.10
2023-04-17T17:29:43.067Z,12.10
2023-04-17T17:32:11.443Z,12.00
2023-04-17T17:34:39.851Z,12.00
2023-04-17T17:37:08.057Z,12.00
2023-04-17T17:39:36.420Z,11.90
2023-04-17T17:42:08.609Z,11.90
2023-04-17T17:44:38.591Z,11.90
2023-04-17T17:47:08.145Z,11.90
2023-04-17T17:49:37.172Z,11.90
2023-04-17T17:52:05.719Z,11.80
2023-04-17T17:54:37.017Z,11.80
2023-04-17T17:57:05.494Z,11.70
2023-04-17T17:59:33.974Z,11.70
2023-04-17T18:02:03.637Z,11.60
2023-04-17T18:04:32.138Z,11.70
2023-04-17T18:07:00.802Z,11.60
2023-04-17T18:09:29.237Z,11.60
2023-04-17T18:11:57.680Z,11.50
2023-04-17T18:14:26.037Z,11.50
2023-04-17T18:16:54.535Z,11.40
2023-04-17T18:19:24.330Z,11.40
2023-04-17T18:21:52.557Z,11.30
2023-04-17T18:24:20.959Z,11.30
2023-04-17T18:26:49.266Z,11.20
2023-04-17T18:29:17.619Z,11.10
2023-04-17T18:31:46.021Z,11.00
2023-04-17T18:34:14.460Z,10.90
2023-04-17T18:36:44.075Z,10.80
2023-04-17T18:39:14.641Z,10.80
2023-04-17T18:41:42.978Z,10.70
2023-04-17T18:44:11.346Z,10.70
2023-04-17T18:46:39.772Z,10.70
2023-04-17T18:49:08.751Z,10.60
2023-04-17T18:51:37.532Z,10.60
2023-04-17T18:54:08.561Z,10.50
2023-04-17T18:56:36.919Z,10.50
2023-04-17T18:59:05.244Z,10.50
2023-04-17T19:01:33.510Z,10.40
2023-04-17T19:04:02.559Z,10.40
2023-04-17T19:06:32.235Z,10.30
2023-04-17T19:09:00.536Z,10.30
2023-04-17T19:11:31.012Z,10.20
2023-04-17T19:13:59.687Z,10.10
2023-04-17T19:16:28.530Z,10.00
2023-04-17T19:18:57.548Z,9.90
2023-04-17T19:21:26.726Z,9.80
2023-04-17T19:23:56.450Z,9.70
2023-04-17T19:26:25.386Z,9.70
2023-04-17T19:28:55.350Z,9.50
2023-04-17T19:31:24.018Z,9.40
2023-04-17T19:33:56.027Z,9.40
2023-04-17T19:36:25.194Z,9.30
2023-04-17T19:38:55.442Z,9.20
2023-04-17T19:41:23.725Z,9.10
2023-04-17T19:43:54.030Z,9.10
2023-04-17T19:46:25.476Z,9.00
2023-04-17T19:48:54.790Z,9.00
2023-04-17T19:51:23.379Z,8.90
2023-04-17T19:53:53.617Z,8.80
2023-04-17T19:56:22.290Z,8.70
2023-04-17T19:58:50.774Z,8.70
2023-04-17T20:01:19.883Z,8.60
2023-04-17T20:03:50.088Z,8.50
2023-04-17T20:06:18.429Z,8.40
2023-04-17T20:08:47.356Z,8.30
2023-04-17T20:11:17.708Z,8.20
2023-04-17T20:13:51.633Z,8.10
2023-04-17T20:16:25.427Z,8.00
2023-04-17T20:18:58.644Z,8.00
2023-04-17T20:21:43.575Z,7.90
2023-04-17T20:24:17.123Z,7.80
2023-04-17T20:26:47.985Z,7.80
2023-04-17T20:29:16.895Z,7.70
2023-04-17T20:31:45.588Z,7.60
2023-04-17T20:34:15.580Z,7.50
2023-04-17T20:36:43.863Z,7.50
2023-04-17T20:39:13.412Z,7.40
2023-04-17T20:41:42.216Z,7.30
2023-04-17T20:44:10.531Z,7.30
2023-04-17T20:46:38.881Z,7.20
2023-04-17T20:49:07.487Z,7.10
2023-04-17T20:51:37.484Z,7.00
2023-04-17T20:54:06.850Z,7.00
2023-04-17T20:56:35.590Z,7.00
2023-04-17T20:59:04.172Z,6.90
2023-04-17T21:01:32.616Z,6.90
2023-04-17T21:04:01.057Z,6.90
2023-04-17T21:06:29.291Z,6.80
2023-04-17T21:08:59.056Z,6.80
2023-04-17T21:11:27.707Z,6.80
2023-04-17T21:13:56.009Z,6.80
2023-04-17T21:16:24.995Z,6.80
2023-04-17T21:18:53.873Z,6.80
2023-04-17T21:21:22.061Z,6.70
2023-04-17T21:23:50.326Z,6.60
2023-04-17T21:26:35.995Z,6.50
2023-04-17T21:29:09.223Z,6.50
2023-04-17T21:31:39.862Z,6.40
2023-04-17T21:34:08.839Z,6.30
2023-04-17T21:36:37.100Z,6.30
2023-04-17T21:39:19.924Z,6.30
2023-04-17T21:41:51.011Z,6.30
2023-04-17T21:44:19.506Z,6.30
2023-04-17T21:46:48.041Z,6.30
2023-04-17T21:49:25.214Z,6.30
2023-04-17T21:52:03.639Z,6.30
2023-04-17T21:54:32.067Z,6.20
2023-04-17T21:57:02.384Z,6.20
2023-04-17T21:59:31.725Z,6.10
2023-04-17T22:02:00.613Z,6.10
2023-04-17T22:04:29.088Z,6.00
2023-04-17T22:06:58.048Z,6.00
2023-04-17T22:09:28.446Z,5.90
2023-04-17T22:11:58.648Z,5.80
2023-04-17T22:14:28.314Z,5.80
2023-04-17T22:16:57.209Z,5.70
2023-04-17T22:19:25.666Z,5.70
2023-04-17T22:21:54.302Z,5.70
2023-04-17T22:24:22.896Z,5.60
2023-04-17T22:26:52.161Z,5.60
2023-04-17T22:29:20.501Z,5.50
2023-04-17T22:31:51.679Z,5.50
2023-04-17T22:34:21.185Z,5.40
2023-04-17T22:36:50.729Z,5.40
2023-04-17T22:39:19.026Z,5.40
2023-04-17T22:41:47.215Z,5.40
2023-04-17T22:44:15.546Z,5.30
2023-04-17T22:46:43.978Z,5.30
2023-04-17T22:49:14.732Z,5.30
2023-04-17T22:51:43.759Z,5.20
2023-04-17T22:54:22.118Z,5.20
2023-04-17T22:56:51.592Z,5.20
2023-04-17T22:59:19.843Z,5.20
2023-04-17T23:01:48.086Z,5.20
2023-04-17T23:04:17.771Z,5.10
2023-04-17T23:06:47.276Z,5.10
2023-04-17T23:09:15.798Z,5.10
2023-04-17T23:11:44.094Z,5.10
2023-04-17T23:14:12.730Z,5.10
2023-04-17T23:16:41.104Z,5.00
2023-04-17T23:19:09.403Z,5.00
2023-04-17T23:21:38.902Z,5.00
2023-04-17T23:24:07.957Z,4.90
2023-04-17T23:26:36.132Z,4.90
2023-04-17T23:29:04.465Z,4.90
2023-04-17T23:31:32.778Z,4.90
2023-04-17T23:34:01.253Z,4.90
2023-04-17T23:36:29.582Z,4.80
2023-04-17T23:38:59.320Z,4.80
2023-04-17T23:41:28.152Z,4.80
2023-04-17T23:43:57.251Z,4.80
2023-04-17T23:46:25.703Z,4.70
2023-04-17T23:48:54.065Z,4.70
2023-04-17T23:51:22.399Z,4.70
2023-04-17T23:53:50.912Z,4.70
2023-04-17T23:56:22.508Z,4.60
2023-04-17T23:58:50.945Z,4.60
